sensor_id;sensor_type;location;lat;lon;timestamp;P1;durP1;ratioP1;P2;durP2;ratioP2
8490;SDS011;4282;49.986;7.938;2023-08-06T00:01:18;3.70;;;2.75;;
8490;SDS011;4282;49.986;7.938;2023-08-06T00:03:48;3.30;;;2.80;;
8490;SDS011;4282;49.986;7.938;2023-08-06T00:06:18;3.73;;;2.73;;
8490;SDS011;4282;49.986;7.938;2023-08-06T00:08:47;3.20;;;2.87;;
8490;SDS011;4282;49.986;7.938;2023-08-06T00:11:15;3.30;;;3.00;;
8490;SDS011;4282;49.986;7.938;2023-08-06T00:13:43;2.97;;;2.67;;
8490;SDS011;4282;49.986;7.938;2023-08-06T00:16:12;5.57;;;2.97;;
8490;SDS011;4282;49.986;7.938;2023-08-06T00:18:40;2.70;;;2.33;;
8490;SDS011;4282;49.986;7.938;2023-08-06T00:21:09;3.70;;;2.83;;
8490;SDS011;4282;49.986;7.938;2023-08-06T00:23:40;3.63;;;2.70;;
8490;SDS011;4282;49.986;7.938;2023-08-06T00:26:09;4.97;;;2.70;;
8490;SDS011;4282;49.986;7.938;2023-08-06T00:28:37;2.92;;;2.72;;
8490;SDS011;4282;49.986;7.938;2023-08-06T00:31:05;4.15;;;2.40;;
8490;SDS011;4282;49.986;7.938;2023-08-06T00:33:33;3.22;;;2.92;;
8490;SDS011;4282;49.986;7.938;2023-08-06T00:36:02;4.10;;;3.53;;
8490;SDS011;4282;49.986;7.938;2023-08-06T00:38:30;2.93;;;2.53;;
8490;SDS011;4282;49.986;7.938;2023-08-06T00:41:01;2.83;;;2.30;;
8490;SDS011;4282;49.986;7.938;2023-08-06T00:43:29;3.07;;;2.47;;
8490;SDS011;4282;49.986;7.938;2023-08-06T00:45:57;3.13;;;2.00;;
8490;SDS011;4282;49.986;7.938;2023-08-06T00:48:26;4.23;;;3.03;;
8490;SDS011;4282;49.986;7.938;2023-08-06T00:50:54;2.27;;;2.07;;
8490;SDS011;4282;49.986;7.938;2023-08-06T00:53:23;2.50;;;2.30;;
8490;SDS011;4282;49.986;7.938;2023-08-06T00:55:51;4.33;;;2.47;;
8490;SDS011;4282;49.986;7.938;2023-08-06T00:58:22;3.73;;;2.50;;
8490;SDS011;4282;49.986;7.938;2023-08-06T01:00:50;3.77;;;2.80;;
8490;SDS011;4282;49.986;7.938;2023-08-06T01:03:19;4.47;;;2.90;;
8490;SDS011;4282;49.986;7.938;2023-08-06T01:05:47;3.33;;;3.00;;
8490;SDS011;4282;49.986;7.938;2023-08-06T01:08:19;3.20;;;2.73;;
8490;SDS011;4282;49.986;7.938;2023-08-06T01:10:55;2.43;;;2.13;;
8490;SDS011;4282;49.986;7.938;2023-08-06T01:13:35;4.30;;;2.87;;
8490;SDS011;4282;49.986;7.938;2023-08-06T01:16:07;4.67;;;2.63;;
8490;SDS011;4282;49.986;7.938;2023-08-06T01:18:37;3.63;;;2.70;;
8490;SDS011;4282;49.986;7.938;2023-08-06T01:21:09;3.63;;;2.83;;
8490;SDS011;4282;49.986;7.938;2023-08-06T01:23:37;5.57;;;3.07;;
8490;SDS011;4282;49.986;7.938;2023-08-06T01:26:09;4.07;;;2.97;;
8490;SDS011;4282;49.986;7.938;2023-08-06T01:28:40;2.83;;;2.40;;
8490;SDS011;4282;49.986;7.938;2023-08-06T01:31:14;5.63;;;3.20;;
8490;SDS011;4282;49.986;7.938;2023-08-06T01:33:45;3.10;;;2.80;;
8490;SDS011;4282;49.986;7.938;2023-08-06T01:36:17;3.63;;;3.10;;
8490;SDS011;4282;49.986;7.938;2023-08-06T01:38:45;4.10;;;2.70;;
8490;SDS011;4282;49.986;7.938;2023-08-06T01:41:14;3.23;;;2.70;;
8490;SDS011;4282;49.986;7.938;2023-08-06T01:43:42;3.63;;;2.80;;
8490;SDS011;4282;49.986;7.938;2023-08-06T01:46:10;4.53;;;3.10;;
8490;SDS011;4282;49.986;7.938;2023-08-06T01:48:38;4.10;;;3.37;;
8490;SDS011;4282;49.986;7.938;2023-08-06T01:51:07;4.23;;;2.80;;
8490;SDS011;4282;49.986;7.938;2023-08-06T01:53:38;3.83;;;2.53;;
8490;SDS011;4282;49.986;7.938;2023-08-06T01:56:06;4.13;;;2.47;;
8490;SDS011;4282;49.986;7.938;2023-08-06T01:58:34;3.63;;;2.67;;
8490;SDS011;4282;49.986;7.938;2023-08-06T02:01:02;4.47;;;2.50;;
8490;SDS011;4282;49.986;7.938;2023-08-06T02:03:31;3.40;;;2.60;;
8490;SDS011;4282;49.986;7.938;2023-08-06T02:05:59;3.20;;;2.40;;
8490;SDS011;4282;49.986;7.938;2023-08-06T02:08:27;4.27;;;2.50;;
8490;SDS011;4282;49.986;7.938;2023-08-06T02:10:58;3.43;;;2.90;;
8490;SDS011;4282;49.986;7.938;2023-08-06T02:13:27;2.60;;;2.40;;
8490;SDS011;4282;49.986;7.938;2023-08-06T02:15:56;2.97;;;2.77;;
8490;SDS011;4282;49.986;7.938;2023-08-06T02:18:24;2.80;;;2.50;;
8490;SDS011;4282;49.986;7.938;2023-08-06T02:20:56;3.17;;;2.57;;
8490;SDS011;4282;49.986;7.938;2023-08-06T02:23:25;3.73;;;2.63;;
8490;SDS011;4282;49.986;7.938;2023-08-06T02:26:00;3.90;;;2.80;;
8490;SDS011;4282;49.986;7.938;2023-08-06T02:28:28;3.93;;;2.50;;
8490;SDS011;4282;49.986;7.938;2023-08-06T02:30:56;4.43;;;2.63;;
8490;SDS011;4282;49.986;7.938;2023-08-06T02:33:25;3.43;;;2.97;;
8490;SDS011;4282;49.986;7.938;2023-08-06T02:35:58;4.23;;;3.03;;
8490;SDS011;4282;49.986;7.938;2023-08-06T02:38:27;3.67;;;2.50;;
8490;SDS011;4282;49.986;7.938;2023-08-06T02:40:55;4.77;;;2.53;;
8490;SDS011;4282;49.986;7.938;2023-08-06T02:43:26;4.13;;;3.00;;
8490;SDS011;4282;49.986;7.938;2023-08-06T02:45:56;3.40;;;3.10;;
8490;SDS011;4282;49.986;7.938;2023-08-06T02:48:24;3.53;;;2.70;;
8490;SDS011;4282;49.986;7.938;2023-08-06T02:50:53;3.43;;;2.83;;
8490;SDS011;4282;49.986;7.938;2023-08-06T02:53:24;4.70;;;2.87;;
8490;SDS011;4282;49.986;7.938;2023-08-06T02:55:52;3.50;;;3.10;;
8490;SDS011;4282;49.986;7.938;2023-08-06T02:58:21;2.93;;;2.73;;
8490;SDS011;4282;49.986;7.938;2023-08-06T03:01:02;3.93;;;2.77;;
8490;SDS011;4282;49.986;7.938;2023-08-06T03:03:32;5.07;;;2.77;;
8490;SDS011;4282;49.986;7.938;2023-08-06T03:06:00;4.47;;;2.90;;
8490;SDS011;4282;49.986;7.938;2023-08-06T03:08:29;3.73;;;2.57;;
8490;SDS011;4282;49.986;7.938;2023-08-06T03:10:57;4.27;;;2.80;;
8490;SDS011;4282;49.986;7.938;2023-08-06T03:13:25;3.83;;;2.60;;
8490;SDS011;4282;49.986;7.938;2023-08-06T03:15:54;6.53;;;2.87;;
8490;SDS011;4282;49.986;7.938;2023-08-06T03:18:25;3.70;;;2.70;;
8490;SDS011;4282;49.986;7.938;2023-08-06T03:20:53;4.80;;;2.77;;
8490;SDS011;4282;49.986;7.938;2023-08-06T03:23:22;6.73;;;3.20;;
8490;SDS011;4282;49.986;7.938;2023-08-06T03:25:50;3.93;;;2.50;;
8490;SDS011;4282;49.986;7.938;2023-08-06T03:28:18;4.23;;;2.60;;
8490;SDS011;4282;49.986;7.938;2023-08-06T03:30:47;2.60;;;2.40;;
8490;SDS011;4282;49.986;7.938;2023-08-06T03:33:15;2.67;;;2.47;;
8490;SDS011;4282;49.986;7.938;2023-08-06T03:35:46;3.77;;;2.53;;
8490;SDS011;4282;49.986;7.938;2023-08-06T03:38:14;4.47;;;2.40;;
8490;SDS011;4282;49.986;7.938;2023-08-06T03:40:42;3.37;;;2.70;;
8490;SDS011;4282;49.986;7.938;2023-08-06T03:43:11;6.60;;;2.80;;
8490;SDS011;4282;49.986;7.938;2023-08-06T03:45:39;3.10;;;2.70;;
8490;SDS011;4282;49.986;7.938;2023-08-06T03:48:08;4.53;;;2.47;;
8490;SDS011;4282;49.986;7.938;2023-08-06T03:50:36;7.47;;;2.40;;
8490;SDS011;4282;49.986;7.938;2023-08-06T03:53:07;3.13;;;2.30;;
8490;SDS011;4282;49.986;7.938;2023-08-06T03:55:35;4.73;;;2.50;;
8490;SDS011;4282;49.986;7.938;2023-08-06T03:58:04;5.37;;;2.87;;
8490;SDS011;4282;49.986;7.938;2023-08-06T04:00:32;6.40;;;2.80;;
8490;SDS011;4282;49.986;7.938;2023-08-06T04:03:00;3.80;;;2.30;;
8490;SDS011;4282;49.986;7.938;2023-08-06T04:05:30;6.87;;;3.53;;
8490;SDS011;4282;49.986;7.938;2023-08-06T04:07:59;5.30;;;3.23;;
8490;SDS011;4282;49.986;7.938;2023-08-06T04:10:30;5.23;;;2.40;;
8490;SDS011;4282;49.986;7.938;2023-08-06T04:12:58;3.13;;;2.50;;
8490;SDS011;4282;49.986;7.938;2023-08-06T04:15:26;3.30;;;2.43;;
8490;SDS011;4282;49.986;7.938;2023-08-06T04:17:54;4.67;;;3.10;;
8490;SDS011;4282;49.986;7.938;2023-08-06T04:20:23;2.70;;;2.10;;
8490;SDS011;4282;49.986;7.938;2023-08-06T04:22:53;3.00;;;2.37;;
8490;SDS011;4282;49.986;7.938;2023-08-06T04:25:22;4.77;;;2.20;;
8490;SDS011;4282;49.986;7.938;2023-08-06T04:27:53;3.50;;;2.23;;
8490;SDS011;4282;49.986;7.938;2023-08-06T04:30:21;2.80;;;2.30;;
8490;SDS011;4282;49.986;7.938;2023-08-06T04:32:50;4.00;;;2.13;;
8490;SDS011;4282;49.986;7.938;2023-08-06T04:35:18;3.77;;;2.27;;
8490;SDS011;4282;49.986;7.938;2023-08-06T04:37:46;8.57;;;2.57;;
8490;SDS011;4282;49.986;7.938;2023-08-06T04:40:14;4.20;;;2.03;;
8490;SDS011;4282;49.986;7.938;2023-08-06T04:42:43;6.07;;;2.20;;
8490;SDS011;4282;49.986;7.938;2023-08-06T04:45:14;4.13;;;2.07;;
8490;SDS011;4282;49.986;7.938;2023-08-06T04:47:42;4.50;;;2.43;;
8490;SDS011;4282;49.986;7.938;2023-08-06T04:50:10;5.70;;;2.43;;
8490;SDS011;4282;49.986;7.938;2023-08-06T04:52:38;5.10;;;2.43;;
8490;SDS011;4282;49.986;7.938;2023-08-06T04:55:07;3.97;;;1.90;;
8490;SDS011;4282;49.986;7.938;2023-08-06T04:57:35;2.00;;;1.80;;
8490;SDS011;4282;49.986;7.938;2023-08-06T05:00:04;2.43;;;1.37;;
8490;SDS011;4282;49.986;7.938;2023-08-06T05:02:36;2.60;;;1.30;;
8490;SDS011;4282;49.986;7.938;2023-08-06T05:05:05;2.27;;;1.10;;
8490;SDS011;4282;49.986;7.938;2023-08-06T05:07:33;1.87;;;1.20;;
8490;SDS011;4282;49.986;7.938;2023-08-06T05:10:02;1.50;;;1.10;;
8490;SDS011;4282;49.986;7.938;2023-08-06T05:12:30;2.87;;;1.80;;
8490;SDS011;4282;49.986;7.938;2023-08-06T05:14:58;2.77;;;1.27;;
8490;SDS011;4282;49.986;7.938;2023-08-06T05:17:26;1.33;;;1.23;;
8490;SDS011;4282;49.986;7.938;2023-08-06T05:19:57;1.10;;;1.10;;
8490;SDS011;4282;49.986;7.938;2023-08-06T05:22:26;2.57;;;1.10;;
8490;SDS011;4282;49.986;7.938;2023-08-06T05:24:54;2.43;;;1.20;;
8490;SDS011;4282;49.986;7.938;2023-08-06T05:27:22;1.90;;;1.37;;
8490;SDS011;4282;49.986;7.938;2023-08-06T05:29:54;1.83;;;0.80;;
8490;SDS011;4282;49.986;7.938;2023-08-06T05:32:23;1.97;;;0.83;;
8490;SDS011;4282;49.986;7.938;2023-08-06T05:34:51;3.97;;;1.10;;
8490;SDS011;4282;49.986;7.938;2023-08-06T05:37:22;1.57;;;0.80;;
8490;SDS011;4282;49.986;7.938;2023-08-06T05:39:50;3.43;;;0.90;;
8490;SDS011;4282;49.986;7.938;2023-08-06T05:42:18;0.60;;;0.60;;
8490;SDS011;4282;49.986;7.938;2023-08-06T05:44:47;0.80;;;0.80;;
8490;SDS011;4282;49.986;7.938;2023-08-06T05:47:15;0.93;;;0.70;;
8490;SDS011;4282;49.986;7.938;2023-08-06T05:49:44;1.00;;;0.90;;
8490;SDS011;4282;49.986;7.938;2023-08-06T05:52:12;2.87;;;0.80;;
8490;SDS011;4282;49.986;7.938;2023-08-06T05:54:43;1.00;;;0.70;;
8490;SDS011;4282;49.986;7.938;2023-08-06T05:57:12;0.80;;;0.80;;
8490;SDS011;4282;49.986;7.938;2023-08-06T05:59:40;1.23;;;1.00;;
8490;SDS011;4282;49.986;7.938;2023-08-06T06:02:08;2.60;;;1.53;;
8490;SDS011;4282;49.986;7.938;2023-08-06T06:04:37;1.40;;;0.80;;
8490;SDS011;4282;49.986;7.938;2023-08-06T06:07:05;2.30;;;0.87;;
8490;SDS011;4282;49.986;7.938;2023-08-06T06:09:33;2.40;;;0.90;;
8490;SDS011;4282;49.986;7.938;2023-08-06T06:12:05;0.93;;;0.77;;
8490;SDS011;4282;49.986;7.938;2023-08-06T06:14:34;0.90;;;0.70;;
8490;SDS011;4282;49.986;7.938;2023-08-06T06:17:02;1.90;;;0.80;;
8490;SDS011;4282;49.986;7.938;2023-08-06T06:19:31;2.63;;;0.80;;
8490;SDS011;4282;49.986;7.938;2023-08-06T06:21:59;1.20;;;0.73;;
8490;SDS011;4282;49.986;7.938;2023-08-06T06:24:27;0.80;;;0.60;;
8490;SDS011;4282;49.986;7.938;2023-08-06T06:26:55;1.20;;;0.80;;
8490;SDS011;4282;49.986;7.938;2023-08-06T06:29:26;0.70;;;0.63;;
8490;SDS011;4282;49.986;7.938;2023-08-06T06:31:54;0.90;;;0.87;;
8490;SDS011;4282;49.986;7.938;2023-08-06T06:34:23;1.70;;;0.70;;
8490;SDS011;4282;49.986;7.938;2023-08-06T06:36:51;0.83;;;0.83;;
8490;SDS011;4282;49.986;7.938;2023-08-06T06:39:20;1.17;;;0.67;;
8490;SDS011;4282;49.986;7.938;2023-08-06T06:41:49;1.47;;;0.60;;
8490;SDS011;4282;49.986;7.938;2023-08-06T06:44:17;0.97;;;0.53;;
8490;SDS011;4282;49.986;7.938;2023-08-06T06:46:48;0.93;;;0.70;;
8490;SDS011;4282;49.986;7.938;2023-08-06T06:49:16;1.43;;;0.70;;
8490;SDS011;4282;49.986;7.938;2023-08-06T06:51:45;1.47;;;0.70;;
8490;SDS011;4282;49.986;7.938;2023-08-06T06:54:13;1.00;;;0.70;;
8490;SDS011;4282;49.986;7.938;2023-08-06T06:56:41;0.50;;;0.50;;
8490;SDS011;4282;49.986;7.938;2023-08-06T06:59:09;0.93;;;0.90;;
8490;SDS011;4282;49.986;7.938;2023-08-06T07:01:38;2.40;;;0.80;;
8490;SDS011;4282;49.986;7.938;2023-08-06T07:04:08;0.93;;;0.60;;
8490;SDS011;4282;49.986;7.938;2023-08-06T07:06:37;0.97;;;0.80;;
8490;SDS011;4282;49.986;7.938;2023-08-06T07:09:05;4.13;;;0.87;;
8490;SDS011;4282;49.986;7.938;2023-08-06T07:11:33;2.13;;;0.80;;
8490;SDS011;4282;49.986;7.938;2023-08-06T07:14:01;1.27;;;0.70;;
8490;SDS011;4282;49.986;7.938;2023-08-06T07:16:30;0.60;;;0.60;;
8490;SDS011;4282;49.986;7.938;2023-08-06T07:18:59;1.13;;;0.87;;
8490;SDS011;4282;49.986;7.938;2023-08-06T07:21:30;0.60;;;0.50;;
8490;SDS011;4282;49.986;7.938;2023-08-06T07:23:58;0.80;;;0.80;;
8490;SDS011;4282;49.986;7.938;2023-08-06T07:26:27;1.07;;;0.73;;
8490;SDS011;4282;49.986;7.938;2023-08-06T07:28:55;0.60;;;0.60;;
8490;SDS011;4282;49.986;7.938;2023-08-06T07:31:23;0.60;;;0.60;;
8490;SDS011;4282;49.986;7.938;2023-08-06T07:33:52;0.73;;;0.60;;
8490;SDS011;4282;49.986;7.938;2023-08-06T07:36:20;0.73;;;0.70;;
8490;SDS011;4282;49.986;7.938;2023-08-06T07:38:51;0.70;;;0.70;;
8490;SDS011;4282;49.986;7.938;2023-08-06T07:41:21;0.70;;;0.70;;
8490;SDS011;4282;49.986;7.938;2023-08-06T07:43:50;0.70;;;0.70;;
8490;SDS011;4282;49.986;7.938;2023-08-06T07:46:18;1.80;;;0.83;;
8490;SDS011;4282;49.986;7.938;2023-08-06T07:48:46;0.70;;;0.70;;
8490;SDS011;4282;49.986;7.938;2023-08-06T07:51:14;0.80;;;0.70;;
8490;SDS011;4282;49.986;7.938;2023-08-06T07:53:43;0.60;;;0.60;;
8490;SDS011;4282;49.986;7.938;2023-08-06T07:56:13;1.67;;;0.63;;
8490;SDS011;4282;49.986;7.938;2023-08-06T07:58:43;0.50;;;0.50;;
8490;SDS011;4282;49.986;7.938;2023-08-06T08:01:11;0.50;;;0.50;;
8490;SDS011;4282;49.986;7.938;2023-08-06T08:03:39;0.70;;;0.60;;
8490;SDS011;4282;49.986;7.938;2023-08-06T08:06:07;0.50;;;0.50;;
8490;SDS011;4282;49.986;7.938;2023-08-06T08:08:36;0.60;;;0.60;;
8490;SDS011;4282;49.986;7.938;2023-08-06T08:11:05;0.50;;;0.50;;
8490;SDS011;4282;49.986;7.938;2023-08-06T08:13:36;1.90;;;0.50;;
8490;SDS011;4282;49.986;7.938;2023-08-06T08:16:04;0.97;;;0.60;;
8490;SDS011;4282;49.986;7.938;2023-08-06T08:18:32;1.60;;;0.57;;
8490;SDS011;4282;49.986;7.938;2023-08-06T08:21:01;0.60;;;0.60;;
8490;SDS011;4282;49.986;7.938;2023-08-06T08:23:29;1.40;;;0.60;;
8490;SDS011;4282;49.986;7.938;2023-08-06T08:25:58;0.57;;;0.50;;
8490;SDS011;4282;49.986;7.938;2023-08-06T08:28:27;3.20;;;0.70;;
8490;SDS011;4282;49.986;7.938;2023-08-06T08:30:58;1.63;;;0.50;;
8490;SDS011;4282;49.986;7.938;2023-08-06T08:33:26;0.60;;;0.50;;
8490;SDS011;4282;49.986;7.938;2023-08-06T08:35:54;0.40;;;0.40;;
8490;SDS011;4282;49.986;7.938;2023-08-06T08:38:23;0.60;;;0.60;;
8490;SDS011;4282;49.986;7.938;2023-08-06T08:40:51;1.07;;;0.50;;
8490;SDS011;4282;49.986;7.938;2023-08-06T08:43:24;0.60;;;0.60;;
8490;SDS011;4282;49.986;7.938;2023-08-06T08:45:53;0.73;;;0.40;;
8490;SDS011;4282;49.986;7.938;2023-08-06T08:48:26;0.33;;;0.33;;
8490;SDS011;4282;49.986;7.938;2023-08-06T08:50:55;0.50;;;0.40;;
8490;SDS011;4282;49.986;7.938;2023-08-06T08:53:23;0.40;;;0.40;;
8490;SDS011;4282;49.986;7.938;2023-08-06T08:55:53;0.60;;;0.60;;
8490;SDS011;4282;49.986;7.938;2023-08-06T08:58:21;0.50;;;0.50;;
8490;SDS011;4282;49.986;7.938;2023-08-06T09:00:49;1.50;;;0.50;;
8490;SDS011;4282;49.986;7.938;2023-08-06T09:03:18;0.50;;;0.50;;
8490;SDS011;4282;49.986;7.938;2023-08-06T09:05:51;0.40;;;0.40;;
8490;SDS011;4282;49.986;7.938;2023-08-06T09:08:23;0.50;;;0.40;;
8490;SDS011;4282;49.986;7.938;2023-08-06T09:10:54;0.60;;;0.60;;
8490;SDS011;4282;49.986;7.938;2023-08-06T09:13:24;0.40;;;0.40;;
8490;SDS011;4282;49.986;7.938;2023-08-06T09:15:52;1.03;;;0.50;;
8490;SDS011;4282;49.986;7.938;2023-08-06T09:18:24;0.50;;;0.40;;
8490;SDS011;4282;49.986;7.938;2023-08-06T09:20:56;0.60;;;0.60;;
8490;SDS011;4282;49.986;7.938;2023-08-06T09:23:27;0.50;;;0.50;;
8490;SDS011;4282;49.986;7.938;2023-08-06T09:25:58;1.07;;;0.50;;
8490;SDS011;4282;49.986;7.938;2023-08-06T09:28:36;0.50;;;0.50;;
8490;SDS011;4282;49.986;7.938;2023-08-06T09:31:07;0.30;;;0.30;;
8490;SDS011;4282;49.986;7.938;2023-08-06T09:33:36;0.70;;;0.57;;
8490;SDS011;4282;49.986;7.938;2023-08-06T09:36:11;0.60;;;0.40;;
8490;SDS011;4282;49.986;7.938;2023-08-06T09:38:40;0.50;;;0.50;;
8490;SDS011;4282;49.986;7.938;2023-08-06T09:41:08;0.50;;;0.30;;
8490;SDS011;4282;49.986;7.938;2023-08-06T09:43:40;1.03;;;0.47;;
8490;SDS011;4282;49.986;7.938;2023-08-06T09:46:12;0.53;;;0.40;;
8490;SDS011;4282;49.986;7.938;2023-08-06T09:48:44;0.40;;;0.40;;
8490;SDS011;4282;49.986;7.938;2023-08-06T09:51:15;0.40;;;0.40;;
8490;SDS011;4282;49.986;7.938;2023-08-06T09:53:45;0.30;;;0.30;;
8490;SDS011;4282;49.986;7.938;2023-08-06T09:56:15;0.83;;;0.30;;
8490;SDS011;4282;49.986;7.938;2023-08-06T09:58:45;0.30;;;0.30;;
8490;SDS011;4282;49.986;7.938;2023-08-06T10:01:15;0.30;;;0.30;;
8490;SDS011;4282;49.986;7.938;2023-08-06T10:03:44;2.00;;;0.50;;
8490;SDS011;4282;49.986;7.938;2023-08-06T10:06:16;0.47;;;0.47;;
8490;SDS011;4282;49.986;7.938;2023-08-06T10:08:44;1.00;;;0.25;;
8490;SDS011;4282;49.986;7.938;2023-08-06T10:11:12;0.60;;;0.30;;
8490;SDS011;4282;49.986;7.938;2023-08-06T10:13:41;0.40;;;0.40;;
8490;SDS011;4282;49.986;7.938;2023-08-06T10:16:09;0.43;;;0.30;;
8490;SDS011;4282;49.986;7.938;2023-08-06T10:18:38;0.47;;;0.47;;
8490;SDS011;4282;49.986;7.938;2023-08-06T10:21:07;3.20;;;0.30;;
8490;SDS011;4282;49.986;7.938;2023-08-06T10:23:39;0.20;;;0.20;;
8490;SDS011;4282;49.986;7.938;2023-08-06T10:26:08;5.40;;;0.53;;
8490;SDS011;4282;49.986;7.938;2023-08-06T10:28:37;0.50;;;0.30;;
8490;SDS011;4282;49.986;7.938;2023-08-06T10:31:06;0.30;;;0.30;;
8490;SDS011;4282;49.986;7.938;2023-08-06T10:33:40;0.30;;;0.30;;
8490;SDS011;4282;49.986;7.938;2023-08-06T10:36:10;0.20;;;0.20;;
8490;SDS011;4282;49.986;7.938;2023-08-06T10:38:48;0.40;;;0.30;;
8490;SDS011;4282;49.986;7.938;2023-08-06T10:41:23;0.20;;;0.20;;
8490;SDS011;4282;49.986;7.938;2023-08-06T10:43:51;1.17;;;0.30;;
8490;SDS011;4282;49.986;7.938;2023-08-06T10:46:23;0.20;;;0.20;;
8490;SDS011;4282;49.986;7.938;2023-08-06T10:48:54;0.20;;;0.20;;
8490;SDS011;4282;49.986;7.938;2023-08-06T10:51:23;0.30;;;0.30;;
8490;SDS011;4282;49.986;7.938;2023-08-06T10:53:53;1.37;;;0.40;;
8490;SDS011;4282;49.986;7.938;2023-08-06T10:56:23;0.37;;;0.37;;
8490;SDS011;4282;49.986;7.938;2023-08-06T10:58:53;0.90;;;0.50;;
8490;SDS011;4282;49.986;7.938;2023-08-06T11:01:23;2.07;;;0.80;;
8490;SDS011;4282;49.986;7.938;2023-08-06T11:03:52;0.20;;;0.20;;
8490;SDS011;4282;49.986;7.938;2023-08-06T11:06:20;0.20;;;0.20;;
8490;SDS011;4282;49.986;7.938;2023-08-06T11:08:54;0.47;;;0.40;;
8490;SDS011;4282;49.986;7.938;2023-08-06T11:11:23;0.40;;;0.30;;
8490;SDS011;4282;49.986;7.938;2023-08-06T11:13:51;0.20;;;0.20;;
8490;SDS011;4282;49.986;7.938;2023-08-06T11:16:21;1.13;;;0.40;;
8490;SDS011;4282;49.986;7.938;2023-08-06T11:18:51;1.10;;;0.40;;
8490;SDS011;4282;49.986;7.938;2023-08-06T11:21:21;0.40;;;0.40;;
8490;SDS011;4282;49.986;7.938;2023-08-06T11:23:50;0.87;;;0.37;;
8490;SDS011;4282;49.986;7.938;2023-08-06T11:26:22;1.20;;;0.47;;
8490;SDS011;4282;49.986;7.938;2023-08-06T11:28:52;0.60;;;0.40;;
8490;SDS011;4282;49.986;7.938;2023-08-06T11:31:21;0.30;;;0.30;;
8490;SDS011;4282;49.986;7.938;2023-08-06T11:33:49;1.23;;;0.60;;
8490;SDS011;4282;49.986;7.938;2023-08-06T11:36:28;0.60;;;0.50;;
8490;SDS011;4282;49.986;7.938;2023-08-06T11:38:59;0.73;;;0.40;;
8490;SDS011;4282;49.986;7.938;2023-08-06T11:41:28;0.60;;;0.60;;
8490;SDS011;4282;49.986;7.938;2023-08-06T11:43:57;0.70;;;0.50;;
8490;SDS011;4282;49.986;7.938;2023-08-06T11:46:25;0.43;;;0.43;;
8490;SDS011;4282;49.986;7.938;2023-08-06T11:48:54;3.00;;;0.60;;
8490;SDS011;4282;49.986;7.938;2023-08-06T11:51:23;0.83;;;0.60;;
8490;SDS011;4282;49.986;7.938;2023-08-06T11:53:53;2.00;;;0.60;;
8490;SDS011;4282;49.986;7.938;2023-08-06T11:56:25;0.70;;;0.70;;
8490;SDS011;4282;49.986;7.938;2023-08-06T11:58:54;1.13;;;0.60;;
8490;SDS011;4282;49.986;7.938;2023-08-06T12:01:22;2.43;;;1.00;;
8490;SDS011;4282;49.986;7.938;2023-08-06T12:03:51;0.73;;;0.73;;
8490;SDS011;4282;49.986;7.938;2023-08-06T12:06:19;0.93;;;0.70;;
8490;SDS011;4282;49.986;7.938;2023-08-06T12:08:47;0.90;;;0.80;;
8490;SDS011;4282;49.986;7.938;2023-08-06T12:11:16;0.77;;;0.77;;
8490;SDS011;4282;49.986;7.938;2023-08-06T12:13:46;0.83;;;0.83;;
8490;SDS011;4282;49.986;7.938;2023-08-06T12:16:18;1.47;;;0.80;;
8490;SDS011;4282;49.986;7.938;2023-08-06T12:18:48;0.60;;;0.60;;
8490;SDS011;4282;49.986;7.938;2023-08-06T12:21:17;1.10;;;0.87;;
8490;SDS011;4282;49.986;7.938;2023-08-06T12:23:45;1.07;;;0.60;;
8490;SDS011;4282;49.986;7.938;2023-08-06T12:26:13;0.80;;;0.70;;
8490;SDS011;4282;49.986;7.938;2023-08-06T12:28:42;0.63;;;0.63;;
8490;SDS011;4282;49.986;7.938;2023-08-06T12:31:13;1.33;;;0.60;;
8490;SDS011;4282;49.986;7.938;2023-08-06T12:33:41;1.23;;;0.80;;
8490;SDS011;4282;49.986;7.938;2023-08-06T12:36:09;0.60;;;0.60;;
8490;SDS011;4282;49.986;7.938;2023-08-06T12:38:37;2.10;;;0.80;;
8490;SDS011;4282;49.986;7.938;2023-08-06T12:41:06;2.13;;;0.90;;
8490;SDS011;4282;49.986;7.938;2023-08-06T12:43:34;0.70;;;0.63;;
8490;SDS011;4282;49.986;7.938;2023-08-06T12:46:02;1.10;;;0.60;;
8490;SDS011;4282;49.986;7.938;2023-08-06T12:48:33;0.80;;;0.70;;
8490;SDS011;4282;49.986;7.938;2023-08-06T12:51:01;2.40;;;0.90;;
8490;SDS011;4282;49.986;7.938;2023-08-06T12:53:30;0.60;;;0.60;;
8490;SDS011;4282;49.986;7.938;2023-08-06T12:55:58;2.57;;;0.70;;
8490;SDS011;4282;49.986;7.938;2023-08-06T12:58:26;2.10;;;0.60;;
8490;SDS011;4282;49.986;7.938;2023-08-06T13:00:54;0.70;;;0.60;;
8490;SDS011;4282;49.986;7.938;2023-08-06T13:03:23;0.50;;;0.50;;
8490;SDS011;4282;49.986;7.938;2023-08-06T13:05:54;0.43;;;0.43;;
8490;SDS011;4282;49.986;7.938;2023-08-06T13:08:23;0.50;;;0.50;;
8490;SDS011;4282;49.986;7.938;2023-08-06T13:10:51;0.70;;;0.40;;
8490;SDS011;4282;49.986;7.938;2023-08-06T13:13:19;0.90;;;0.50;;
8490;SDS011;4282;49.986;7.938;2023-08-06T13:15:48;0.77;;;0.50;;
8490;SDS011;4282;49.986;7.938;2023-08-06T13:18:16;0.40;;;0.40;;
8490;SDS011;4282;49.986;7.938;2023-08-06T13:20:44;0.47;;;0.43;;
8490;SDS011;4282;49.986;7.938;2023-08-06T13:23:17;0.40;;;0.40;;
8490;SDS011;4282;49.986;7.938;2023-08-06T13:25:45;0.50;;;0.43;;
8490;SDS011;4282;49.986;7.938;2023-08-06T13:28:13;0.93;;;0.63;;
8490;SDS011;4282;49.986;7.938;2023-08-06T13:30:42;0.70;;;0.50;;
8490;SDS011;4282;49.986;7.938;2023-08-06T13:33:10;0.63;;;0.50;;
8490;SDS011;4282;49.986;7.938;2023-08-06T13:35:38;0.60;;;0.40;;
8490;SDS011;4282;49.986;7.938;2023-08-06T13:38:07;1.90;;;0.40;;
8490;SDS011;4282;49.986;7.938;2023-08-06T13:40:38;0.60;;;0.60;;
8490;SDS011;4282;49.986;7.938;2023-08-06T13:43:07;0.60;;;0.60;;
8490;SDS011;4282;49.986;7.938;2023-08-06T13:45:35;2.37;;;1.27;;
8490;SDS011;4282;49.986;7.938;2023-08-06T13:48:04;0.97;;;0.70;;
8490;SDS011;4282;49.986;7.938;2023-08-06T13:50:32;0.70;;;0.60;;
8490;SDS011;4282;49.986;7.938;2023-08-06T13:53:00;1.60;;;0.50;;
8490;SDS011;4282;49.986;7.938;2023-08-06T13:55:29;0.43;;;0.40;;
8490;SDS011;4282;49.986;7.938;2023-08-06T13:58:00;1.07;;;0.60;;
8490;SDS011;4282;49.986;7.938;2023-08-06T14:00:28;0.40;;;0.40;;
8490;SDS011;4282;49.986;7.938;2023-08-06T14:02:56;0.53;;;0.50;;
8490;SDS011;4282;49.986;7.938;2023-08-06T14:05:25;0.40;;;0.30;;
8490;SDS011;4282;49.986;7.938;2023-08-06T14:07:53;1.90;;;0.30;;
8490;SDS011;4282;49.986;7.938;2023-08-06T14:10:21;1.80;;;0.57;;
8490;SDS011;4282;49.986;7.938;2023-08-06T14:12:50;0.53;;;0.30;;
8490;SDS011;4282;49.986;7.938;2023-08-06T14:15:21;0.57;;;0.30;;
8490;SDS011;4282;49.986;7.938;2023-08-06T14:17:49;1.67;;;0.47;;
8490;SDS011;4282;49.986;7.938;2023-08-06T14:20:17;0.40;;;0.30;;
8490;SDS011;4282;49.986;7.938;2023-08-06T14:22:46;1.37;;;0.93;;
8490;SDS011;4282;49.986;7.938;2023-08-06T14:25:14;0.80;;;0.50;;
8490;SDS011;4282;49.986;7.938;2023-08-06T14:27:42;0.30;;;0.30;;
8490;SDS011;4282;49.986;7.938;2023-08-06T14:30:11;1.17;;;0.60;;
8490;SDS011;4282;49.986;7.938;2023-08-06T14:32:42;3.10;;;1.87;;
8490;SDS011;4282;49.986;7.938;2023-08-06T14:35:10;0.53;;;0.50;;
8490;SDS011;4282;49.986;7.938;2023-08-06T14:37:39;0.90;;;0.47;;
8490;SDS011;4282;49.986;7.938;2023-08-06T14:40:08;0.50;;;0.50;;
8490;SDS011;4282;49.986;7.938;2023-08-06T14:42:37;0.40;;;0.40;;
8490;SDS011;4282;49.986;7.938;2023-08-06T14:45:05;0.77;;;0.30;;
8490;SDS011;4282;49.986;7.938;2023-08-06T14:47:34;0.20;;;0.20;;
8490;SDS011;4282;49.986;7.938;2023-08-06T14:50:05;0.20;;;0.20;;
8490;SDS011;4282;49.986;7.938;2023-08-06T14:52:34;0.63;;;0.40;;
8490;SDS011;4282;49.986;7.938;2023-08-06T14:55:03;0.30;;;0.30;;
8490;SDS011;4282;49.986;7.938;2023-08-06T14:57:32;3.47;;;0.40;;
8490;SDS011;4282;49.986;7.938;2023-08-06T15:00:00;0.43;;;0.37;;
8490;SDS011;4282;49.986;7.938;2023-08-06T15:02:28;0.97;;;0.30;;
8490;SDS011;4282;49.986;7.938;2023-08-06T15:04:56;0.77;;;0.30;;
8490;SDS011;4282;49.986;7.938;2023-08-06T15:07:27;0.20;;;0.20;;
8490;SDS011;4282;49.986;7.938;2023-08-06T15:09:58;0.40;;;0.40;;
8490;SDS011;4282;49.986;7.938;2023-08-06T15:12:26;0.43;;;0.40;;
8490;SDS011;4282;49.986;7.938;2023-08-06T15:14:54;0.30;;;0.30;;
8490;SDS011;4282;49.986;7.938;2023-08-06T15:17:23;0.67;;;0.20;;
8490;SDS011;4282;49.986;7.938;2023-08-06T15:19:52;0.40;;;0.30;;
8490;SDS011;4282;49.986;7.938;2023-08-06T15:22:20;0.30;;;0.30;;
8490;SDS011;4282;49.986;7.938;2023-08-06T15:24:51;0.20;;;0.20;;
8490;SDS011;4282;49.986;7.938;2023-08-06T15:27:19;0.50;;;0.50;;